Time;durP1;ratioP1;P1;durP2;ratioP2;P2;SDS_P1;SDS_P2;PMS_P1;PMS_P2;Temp;Humidity;BMP_temperature;BMP_pressure;BME280_temperature;BME280_humidity;BME280_pressure;Samples;Min_cycle;Max_cycle;Signal;HPM_P1;HPM_P2
2022/06/23 00:00:00;;;;;;;12.63;4.80;;;;;;;24.85;66.62;99849.31;4954748;28;20177;-71
2022/06/23 00:02:30;;;;;;;13.33;4.80;;;;;;;24.84;66.68;99848.50;4955101;28;20418;-72
2022/06/23 00:05:04;;;;;;;8.90;3.70;;;;;;;24.84;66.34;99854.28;4958853;28;20516;-72
2022/06/23 00:07:31;;;;;;;11.90;4.90;;;;;;;24.84;66.40;99845.59;4953290;28;20967;-73
2022/06/23 00:09:57;;;;;;;10.33;3.90;;;;;;;24.84;66.59;99848.50;4953011;28;20469;-71
2022/06/23 00:12:32;;;;;;;11.13;4.07;;;;;;;24.85;66.35;99855.09;4954078;28;20945;-72
2022/06/23 00:15:06;;;;;;;8.50;3.80;;;;;;;24.84;66.27;99868.72;4969226;28;20813;-71
2022/06/23 00:17:45;;;;;;;10.00;3.93;;;;;;;24.84;66.20;99862.94;4969234;28;20424;-71
2022/06/23 00:20:25;;;;;;;7.07;3.70;;;;;;;24.83;66.19;99864.19;4971468;28;20424;-72
2022/06/23 00:22:53;;;;;;;12.30;3.90;;;;;;;24.83;66.43;99858.41;4957227;28;20410;-72
2022/06/23 00:25:49;;;;;;;14.33;4.03;;;;;;;24.84;66.35;99859.25;4955817;28;20413;-72
2022/06/23 00:28:20;;;;;;;9.43;3.73;;;;;;;24.83;65.73;99854.72;4973331;28;20485;-73
2022/06/23 00:30:52;;;;;;;8.60;3.27;;;;;;;24.81;65.98;99858.03;4973479;28;20514;-72
2022/06/23 00:33:20;;;;;;;8.67;3.87;;;;;;;24.82;66.36;99853.91;4974698;28;20528;-72
2022/06/23 00:35:47;;;;;;;8.17;3.70;;;;;;;24.83;66.01;99854.72;4973576;28;20434;-71
2022/06/23 00:38:18;;;;;;;9.90;4.13;;;;;;;24.82;65.96;99845.22;4954743;28;20475;-71
2022/06/23 00:40:44;;;;;;;8.27;3.90;;;;;;;24.81;66.08;99846.50;4956538;28;20467;-71
2022/06/23 00:43:09;;;;;;;6.67;3.27;;;;;;;24.82;65.90;99853.06;4957244;28;20501;-71
2022/06/23 00:45:40;;;;;;;9.60;4.30;;;;;;;24.81;65.83;99849.38;4954921;28;20586;-72
2022/06/23 00:48:25;;;;;;;13.10;5.33;;;;;;;24.80;65.44;99844.88;4955221;28;20202;-71
2022/06/23 00:51:26;;;;;;;9.93;4.17;;;;;;;24.80;65.80;99847.75;4970537;28;20436;-71
2022/06/23 00:54:27;;;;;;;8.80;3.90;;;;;;;24.80;65.19;99841.16;4970336;28;20440;-73
2022/06/23 00:57:09;;;;;;;11.00;3.77;;;;;;;24.79;65.60;99846.09;4969205;28;20410;-72
2022/06/23 00:59:41;;;;;;;8.90;4.23;;;;;;;24.79;65.54;99846.09;4968387;28;20430;-72
2022/06/23 01:02:12;;;;;;;13.53;4.10;;;;;;;24.79;65.30;99843.19;4968885;28;20425;-72
2022/06/23 01:04:56;;;;;;;10.60;3.80;;;;;;;24.78;65.40;99856.00;4956535;28;20461;-72
2022/06/23 01:07:43;;;;;;;12.53;4.17;;;;;;;24.77;65.40;99851.50;4968873;28;20757;-72
2022/06/23 01:10:15;;;;;;;12.73;3.80;;;;;;;24.77;65.17;99850.66;4952475;28;20473;-71
2022/06/23 01:12:53;;;;;;;11.63;3.80;;;;;;;24.76;65.35;99857.69;4952993;28;20433;-71
2022/06/23 01:15:40;;;;;;;8.00;3.17;;;;;;;24.74;64.91;99858.13;4969873;28;20914;-71
2022/06/23 01:18:35;;;;;;;11.27;3.47;;;;;;;24.74;65.19;99851.56;4969878;28;20430;-72
2022/06/23 01:21:07;;;;;;;6.70;3.30;;;;;;;24.74;65.06;99866.78;4969705;28;20412;-73
2022/06/23 01:23:38;;;;;;;6.00;3.30;;;;;;;24.74;65.00;99861.00;4970216;28;20425;-71
2022/06/23 01:26:35;;;;;;;5.67;3.00;;;;;;;24.74;65.23;99872.56;4969529;28;20432;-71
2022/06/23 01:29:21;;;;;;;12.47;3.47;;;;;;;24.73;64.69;99870.13;4953689;28;20562;-71
2022/06/23 01:31:48;;;;;;;8.97;3.07;;;;;;;24.72;64.99;99872.19;4967869;28;20799;-74
2022/06/23 01:34:29;;;;;;;5.70;2.67;;;;;;;24.72;64.97;99868.47;4950670;28;20493;-71
2022/06/23 01:37:02;;;;;;;7.00;3.10;;;;;;;24.72;64.75;99877.97;4949614;29;20510;-72
2022/06/23 01:40:17;;;;;;;5.70;2.47;;;;;;;24.72;64.81;99880.03;4972353;28;20444;-72
2022/06/23 01:42:47;;;;;;;4.27;2.80;;;;;;;24.71;64.76;99879.22;4923240;28;20842;-71
2022/06/23 01:45:51;;;;;;;7.17;2.30;;;;;;;24.70;64.45;99877.59;4970358;28;20461;-71
2022/06/23 01:48:51;;;;;;;4.87;2.67;;;;;;;24.70;64.16;99877.59;4969134;28;20473;-71
2022/06/23 01:51:29;;;;;;;8.00;2.70;;;;;;;24.70;64.12;99889.16;4971587;28;20468;-72
2022/06/23 01:54:12;;;;;;;5.67;2.73;;;;;;;24.70;64.26;99876.75;4969669;28;20433;-71
2022/06/23 01:57:03;;;;;;;8.33;2.33;;;;;;;24.69;64.30;99893.25;4955632;28;20457;-72
2022/06/23 01:59:56;;;;;;;8.23;2.60;;;;;;;24.69;64.21;99890.38;4969477;28;20414;-71
2022/06/23 02:02:39;;;;;;;5.67;2.27;;;;;;;24.69;64.06;99884.59;4955493;28;20909;-73
2022/06/23 02:05:30;;;;;;;7.93;2.53;;;;;;;24.68;64.03;99885.84;4958590;28;20478;-71
2022/06/23 02:08:17;;;;;;;4.97;2.40;;;;;;;24.67;64.19;99890.00;4969869;28;20422;-73
2022/06/23 02:10:44;;;;;;;8.50;2.30;;;;;;;24.68;64.08;99887.94;4989723;28;20499;-72
2022/06/23 02:13:32;;;;;;;5.60;2.37;;;;;;;24.67;63.93;99898.66;4957523;28;20488;-73
2022/06/23 02:16:05;;;;;;;7.53;2.00;;;;;;;24.66;63.84;99887.53;4958416;28;20480;-71
2022/06/23 02:18:55;;;;;;;7.60;2.10;;;;;;;24.65;63.81;99892.50;4958085;28;20472;-71
2022/06/23 02:21:20;;;;;;;4.33;2.40;;;;;;;24.65;64.03;99891.69;4959954;28;20414;-72
2022/06/23 02:24:12;;;;;;;5.40;2.23;;;;;;;24.65;63.88;99889.63;4976947;28;20754;-73
2022/06/23 02:26:53;;;;;;;6.10;2.30;;;;;;;24.65;63.67;99892.50;4962690;28;20592;-71
2022/06/23 02:29:53;;;;;;;4.77;2.00;;;;;;;24.65;63.46;99885.91;4993912;28;20472;-72
2022/06/23 02:32:34;;;;;;;4.50;2.10;;;;;;;24.65;63.22;99889.63;4986010;28;20437;-71
2022/06/23 02:35:08;;;;;;;5.70;2.40;;;;;;;24.64;63.69;99890.06;4981296;28;20456;-71
2022/06/23 02:37:46;;;;;;;4.97;2.57;;;;;;;24.65;63.31;99889.63;4957420;28;20436;-72
2022/06/23 02:40:27;;;;;;;4.10;2.00;;;;;;;24.65;63.52;99894.56;4973556;28;20500;-72
2022/06/23 02:42:55;;;;;;;8.30;2.10;;;;;;;24.64;63.44;99887.16;4961087;28;20433;-72
2022/06/23 02:46:02;;;;;;;5.97;2.10;;;;;;;24.64;63.07;99892.94;4957055;28;20799;-72
2022/06/23 02:48:43;;;;;;;4.90;2.47;;;;;;;24.64;63.27;99895.81;4975841;28;20457;-71
2022/06/23 02:51:11;;;;;;;5.63;2.37;;;;;;;24.62;63.08;99896.25;4975359;28;20405;-71
2022/06/23 02:53:40;;;;;;;3.80;2.00;;;;;;;24.62;63.42;99899.13;4992759;28;20927;-72
2022/06/23 02:56:38;;;;;;;4.90;2.30;;;;;;;24.61;63.27;99908.22;4994298;28;20475;-71
2022/06/23 02:59:46;;;;;;;5.40;2.17;;;;;;;24.61;63.13;99897.50;4993445;28;20401;-71
2022/06/23 03:02:43;;;;;;;4.70;2.17;;;;;;;24.60;62.91;99907.41;4956711;28;20524;-71
2022/06/23 03:05:27;;;;;;;5.73;2.40;;;;;;;24.60;63.17;99904.53;4976993;28;20474;-71
2022/06/23 03:07:59;;;;;;;8.33;2.23;;;;;;;24.60;62.73;99907.41;4986313;28;20947;-71
2022/06/23 03:10:38;;;;;;;5.13;2.27;;;;;;;24.61;63.09;99908.22;4968141;28;20478;-72
2022/06/23 03:13:31;;;;;;;6.40;2.33;;;;;;;24.59;63.03;99905.75;4987757;28;20530;-71
2022/06/23 03:16:08;;;;;;;11.27;2.30;;;;;;;24.60;62.79;99915.25;4988475;28;20518;-71
2022/06/23 03:18:46;;;;;;;5.70;2.20;;;;;;;24.59;62.69;99920.19;4972691;28;20430;-72
2022/06/23 03:21:20;;;;;;;6.83;2.00;;;;;;;24.59;62.83;99928.84;4985169;28;20427;-72
2022/06/23 03:23:48;;;;;;;10.13;2.40;;;;;;;24.58;62.92;99918.56;4955370;29;20425;-71
2022/06/23 03:26:24;;;;;;;10.50;2.53;;;;;;;24.58;62.52;99921.44;4969988;28;20521;-72
2022/06/23 03:28:56;;;;;;;4.47;1.90;;;;;;;24.58;63.17;99920.63;4979299;28;20468;-71
2022/06/23 03:31:28;;;;;;;4.90;2.53;;;;;;;24.58;62.72;99929.28;4973960;28;20450;-71
2022/06/23 03:34:06;;;;;;;5.67;2.77;;;;;;;24.57;62.73;99928.44;4974455;28;21525;-71
2022/06/23 03:36:48;;;;;;;5.47;1.93;;;;;;;24.56;62.35;99932.59;4943225;28;20444;-71
2022/06/23 03:42:27;;;;;;;5.83;2.40;;;;;;;24.55;62.23;99933.84;4971223;28;20484;-72
2022/06/23 03:45:12;;;;;;;7.30;2.43;;;;;;;24.56;62.43;99944.13;4961679;28;20989;-72
2022/06/23 03:47:42;;;;;;;4.60;2.00;;;;;;;24.56;62.27;99940.41;4977723;28;20475;-72
2022/06/23 03:50:29;;;;;;;4.70;2.50;;;;;;;24.55;62.39;99930.97;4957345;28;20470;-71
2022/06/23 03:52:57;;;;;;;6.00;2.50;;;;;;;24.54;62.05;99929.28;4959643;28;20418;-73
2022/06/23 03:55:23;;;;;;;10.07;2.43;;;;;;;24.55;62.20;99930.97;4959933;28;20484;-72
2022/06/23 03:57:55;;;;;;;5.90;2.87;;;;;;;24.55;62.21;99933.84;4973972;28;20429;-72
2022/06/23 04:00:26;;;;;;;4.43;2.07;;;;;;;24.55;62.01;99933.84;4957688;28;20418;-72
2022/06/23 04:03:01;;;;;;;4.40;2.10;;;;;;;24.54;61.88;99940.84;4978013;28;20484;-72
2022/06/23 04:05:56;;;;;;;6.60;2.40;;;;;;;24.54;61.80;99937.97;4971995;28;20473;-71
2022/06/23 04:08:22;;;;;;;4.97;1.50;;;;;;;24.54;62.06;99940.84;4975615;28;20428;-71
2022/06/23 04:10:48;;;;;;;3.97;1.83;;;;;;;24.53;61.93;99939.22;4971200;28;20430;-72
2022/06/23 04:13:19;;;;;;;6.77;2.33;;;;;;;24.53;61.85;99930.56;4956876;28;20442;-71
2022/06/23 04:15:45;;;;;;;5.73;2.03;;;;;;;24.53;62.09;99935.53;4970935;28;20265;-71
2022/06/23 04:18:17;;;;;;;6.13;2.13;;;;;;;24.53;62.11;99930.56;4955056;28;20838;-72
2022/06/23 04:20:47;;;;;;;8.03;2.27;;;;;;;24.53;61.76;99935.53;4959418;28;20545;-71
2022/06/23 04:23:20;;;;;;;5.70;2.13;;;;;;;24.54;62.20;99925.63;4958237;28;20433;-71
2022/06/23 04:26:04;;;;;;;6.77;2.23;;;;;;;24.53;61.96;99929.75;4970809;28;20960;-71
2022/06/23 04:28:36;;;;;;;10.63;2.20;;;;;;;24.53;61.73;99929.75;5010919;28;20463;-71
2022/06/23 04:31:04;;;;;;;7.73;2.70;;;;;;;24.52;61.93;99926.03;4992408;28;20443;-71
2022/06/23 04:33:29;;;;;;;6.77;2.30;;;;;;;24.53;61.76;99927.66;4975085;28;20437;-71
2022/06/23 04:35:58;;;;;;;9.23;2.50;;;;;;;24.53;61.92;99924.78;4973147;28;20448;-71
2022/06/23 04:38:36;;;;;;;5.87;2.73;;;;;;;24.54;62.13;99931.38;4973624;28;20222;-71
2022/06/23 04:41:04;;;;;;;5.97;2.07;;;;;;;24.55;62.03;99933.84;4974934;28;20430;-71
2022/06/23 04:43:38;;;;;;;5.60;2.27;;;;;;;24.57;61.84;99931.34;4971772;28;20441;-71
2022/06/23 04:46:15;;;;;;;7.67;2.20;;;;;;;24.58;61.55;99935.88;4955483;28;20514;-71
2022/06/23 04:48:54;;;;;;;3.07;1.83;;;;;;;24.58;61.56;99941.66;4954728;28;20875;-71
2022/06/23 04:51:26;;;;;;;4.63;1.70;;;;;;;24.59;61.52;99946.19;4962097;28;20780;-72
2022/06/23 04:53:58;;;;;;;9.63;2.60;;;;;;;24.60;62.02;99947.00;4972802;28;20414;-71
2022/06/23 04:56:51;;;;;;;7.17;1.97;;;;;;;24.61;61.58;99943.69;4959362;28;20426;-71
2022/06/23 04:59:44;;;;;;;6.80;2.27;;;;;;;24.64;61.62;99942.00;4971681;28;21028;-72
2022/06/23 05:02:48;;;;;;;7.93;2.50;;;;;;;24.64;61.54;99950.69;4972382;28;20545;-72
2022/06/23 05:05:27;;;;;;;3.90;1.60;;;;;;;24.64;61.45;99948.59;4944577;28;20508;-71
2022/06/23 05:08:01;;;;;;;4.10;1.77;;;;;;;24.65;61.68;99949.41;4959164;28;20500;-73
2022/06/23 05:10:32;;;;;;;8.40;2.33;;;;;;;24.64;61.55;99953.56;4957032;28;20526;-71
2022/06/23 05:13:21;;;;;;;4.30;1.90;;;;;;;24.64;61.45;99965.09;4974130;28;20426;-72
2022/06/23 05:16:05;;;;;;;7.30;2.50;;;;;;;24.64;61.97;99957.25;4965945;28;20500;-72
2022/06/23 05:18:42;;;;;;;7.07;2.13;;;;;;;24.67;61.89;99959.28;4955368;28;20441;-71
2022/06/23 05:21:09;;;;;;;12.00;2.47;;;;;;;24.69;61.50;99955.97;4973190;28;20413;-72
2022/06/23 05:23:59;;;;;;;8.27;2.00;;;;;;;24.70;62.06;99960.50;4954230;28;20496;-72
2022/06/23 05:26:28;;;;;;;5.53;2.57;;;;;;;24.71;61.46;99957.19;4974695;28;20445;-72
2022/06/23 05:29:02;;;;;;;6.83;2.03;;;;;;;24.72;61.79;99964.59;4973251;28;20921;-71
2022/06/23 05:31:31;;;;;;;5.60;2.40;;;;;;;24.74;61.83;99964.97;4975292;28;20908;-71
2022/06/23 05:34:10;;;;;;;6.80;2.37;;;;;;;24.74;62.26;99958.38;4973229;28;20484;-71
2022/06/23 05:37:18;;;;;;;4.40;1.93;;;;;;;24.69;62.17;99961.75;4942060;28;20501;-72
2022/06/23 05:39:46;;;;;;;6.53;2.10;;;;;;;24.65;62.30;99956.03;4972978;28;20430;-71
2022/06/23 05:42:25;;;;;;;5.40;2.20;;;;;;;24.63;62.17;99961.41;4955911;28;20426;-71
2022/06/23 05:44:56;;;;;;;7.93;2.33;;;;;;;24.63;62.58;99955.63;4968418;28;20439;-71
2022/06/23 05:47:22;;;;;;;5.53;2.40;;;;;;;24.65;62.61;99961.81;4976085;28;20428;-71
2022/06/23 05:49:53;;;;;;;5.57;1.90;;;;;;;24.68;62.50;99960.91;4974455;28;20762;-72
2022/06/23 05:52:35;;;;;;;7.07;2.17;;;;;;;24.69;62.84;99953.09;4989856;28;20235;-71
2022/06/23 05:55:13;;;;;;;4.30;2.50;;;;;;;24.70;62.53;99954.72;4976193;28;20911;-71
2022/06/23 05:57:47;;;;;;;6.27;2.23;;;;;;;24.71;62.90;99948.53;4990963;28;20471;-71
2022/06/23 06:00:24;;;;;;;6.50;2.37;;;;;;;24.71;62.88;99951.41;4989959;28;20436;-71
2022/06/23 06:03:04;;;;;;;5.67;2.27;;;;;;;24.71;62.62;99954.28;5006360;28;20522;-71
2022/06/23 06:05:37;;;;;;;10.43;2.53;;;;;;;24.72;62.54;99955.94;4970638;28;20953;-71
2022/06/23 06:08:11;;;;;;;6.60;2.30;;;;;;;24.74;62.94;99959.19;4954704;28;20431;-72
2022/06/23 06:10:36;;;;;;;9.30;3.30;;;;;;;24.76;62.41;99961.66;4971074;28;20446;-71
2022/06/23 06:13:02;;;;;;;8.87;3.20;;;;;;;24.77;62.88;99954.63;4969395;28;20432;-71
2022/06/23 06:15:30;;;;;;;8.63;3.50;;;;;;;24.76;62.51;99959.59;4955063;28;20182;-71
2022/06/23 06:18:07;;;;;;;7.63;3.07;;;;;;;24.76;63.16;99958.75;4951101;28;20441;-71
2022/06/23 06:20:34;;;;;;;9.23;2.70;;;;;;;24.75;63.11;99965.78;4955492;28;20782;-72
2022/06/23 06:23:05;;;;;;;7.97;2.97;;;;;;;24.70;63.45;99967.09;4957934;28;20421;-72
2022/06/23 06:25:37;;;;;;;5.97;2.43;;;;;;;24.61;64.34;99961.03;4989252;28;20434;-71
2022/06/23 06:28:30;;;;;;;5.87;2.97;;;;;;;24.58;63.76;99958.16;4968896;28;20420;-71
2022/06/23 06:31:22;;;;;;;7.63;2.60;;;;;;;24.63;63.65;99954.81;4991303;28;20444;-71
2022/06/23 06:34:13;;;;;;;6.13;2.93;;;;;;;24.65;63.91;99950.25;4991713;28;20984;-73
2022/06/23 06:36:43;;;;;;;10.67;3.00;;;;;;;24.63;63.37;99946.97;4959370;28;20433;-73
2022/06/23 06:39:23;;;;;;;9.73;3.13;;;;;;;24.63;63.86;99954.81;4956114;28;20468;-73
2022/06/23 06:42:05;;;;;;;10.07;3.70;;;;;;;24.56;64.23;99963.50;4956202;28;20760;-71
2022/06/23 06:44:34;;;;;;;8.93;4.07;;;;;;;24.26;66.38;99967.16;4955629;28;20564;-71
2022/06/23 06:46:59;;;;;;;9.67;3.27;;;;;;;24.38;64.76;99957.94;4985586;28;20875;-71
2022/06/23 06:49:25;;;;;;;10.30;3.17;;;;;;;24.41;65.46;99957.09;4956693;28;20537;-73
2022/06/23 06:51:51;;;;;;;12.73;3.90;;;;;;;24.57;64.58;99960.19;4970634;28;20241;-71
2022/06/23 06:54:18;;;;;;;9.10;3.03;;;;;;;24.62;64.06;99962.66;4957104;28;20190;-71
2022/06/23 06:56:57;;;;;;;6.73;4.50;;;;;;;24.35;65.83;99963.75;4973731;28;20426;-71
2022/06/23 06:59:29;;;;;;;9.37;3.20;;;;;;;24.53;64.78;99958.63;4958009;28;20414;-71
2022/06/23 07:02:10;;;;;;;11.10;3.73;;;;;;;24.62;64.83;99956.88;4973614;28;20913;-71
2022/06/23 07:04:38;;;;;;;10.50;3.00;;;;;;;24.64;64.31;99960.13;4965323;28;20492;-71
2022/06/23 07:07:06;;;;;;;8.63;3.47;;;;;;;24.65;64.30;99956.03;4972706;28;20595;-72
2022/06/23 07:09:38;;;;;;;11.00;3.20;;;;;;;24.26;66.55;99967.16;4971268;28;20450;-73
2022/06/23 07:12:05;;;;;;;7.27;3.10;;;;;;;24.39;66.32;99958.78;4973530;28;20875;-71
2022/06/23 07:14:40;;;;;;;7.83;3.13;;;;;;;24.51;65.73;99955.31;4975012;28;20436;-72
2022/06/23 07:17:17;;;;;;;8.77;3.20;;;;;;;24.40;65.76;99949.69;4957731;28;20447;-72
2022/06/23 07:19:54;;;;;;;9.90;3.03;;;;;;;24.56;64.94;99946.19;4973194;28;20987;-71
2022/06/23 07:22:31;;;;;;;6.77;2.80;;;;;;;24.62;65.05;99950.28;4956540;28;20421;-71
2022/06/23 07:25:08;;;;;;;9.70;3.00;;;;;;;24.63;64.85;99958.50;4957074;28;20516;-71
2022/06/23 07:27:47;;;;;;;7.53;3.27;;;;;;;24.53;66.36;99944.97;4968653;28;20477;-72
2022/06/23 07:30:22;;;;;;;13.50;3.40;;;;;;;24.59;65.56;99933.81;4990765;28;20481;-71
2022/06/23 07:32:58;;;;;;;10.00;3.60;;;;;;;24.64;65.13;99937.03;4973775;28;20432;-71
2022/06/23 07:35:36;;;;;;;9.93;3.20;;;;;;;24.61;66.34;99935.03;4976186;28;20472;-72
2022/06/23 07:38:20;;;;;;;8.70;3.47;;;;;;;24.62;65.49;99933.78;4954889;28;21068;-71
2022/06/23 07:40:47;;;;;;;6.33;3.23;;;;;;;24.57;66.61;99933.38;4953961;28;20835;-71
2022/06/23 07:43:19;;;;;;;9.13;3.07;;;;;;;24.52;66.46;99933.88;4970861;28;20418;-72
2022/06/23 07:45:55;;;;;;;9.13;3.40;;;;;;;24.53;66.19;99932.63;4970363;28;21145;-72
2022/06/23 07:48:21;;;;;;;14.23;3.83;;;;;;;24.61;65.93;99928.44;4973164;28;20410;-73
2022/06/23 07:50:47;;;;;;;10.10;3.03;;;;;;;24.65;65.55;99926.31;4956894;28;21031;-72
2022/06/23 07:53:21;;;;;;;10.63;3.00;;;;;;;24.59;66.61;99928.84;4969833;28;20170;-72
2022/06/23 07:55:46;;;;;;;6.50;3.20;;;;;;;24.65;65.67;99932.09;4954277;28;20940;-73
2022/06/23 07:58:14;;;;;;;12.70;3.83;;;;;;;24.53;68.12;99932.63;4953616;28;20465;-71
2022/06/23 08:00:40;;;;;;;9.23;3.87;;;;;;;24.43;67.49;99925.72;4969948;28;20656;-73
2022/06/23 08:03:12;;;;;;;4.63;2.60;;;;;;;24.57;65.96;99916.91;4955134;28;20456;-72
2022/06/23 08:05:48;;;;;;;7.80;3.20;;;;;;;24.61;66.69;99911.09;4970870;28;20482;-71
2022/06/23 08:08:18;;;;;;;9.20;3.43;;;;;;;24.62;66.08;99916.47;4954033;28;20445;-71
2022/06/23 08:10:44;;;;;;;9.20;3.17;;;;;;;24.65;66.13;99915.59;4954232;28;20426;-71
2022/06/23 08:13:12;;;;;;;10.77;3.10;;;;;;;24.69;65.66;99910.56;4943737;29;20430;-73
2022/06/23 08:18:40;;;;;;;9.93;3.20;;;;;;;24.68;66.73;99906.06;4962621;28;20402;-71
2022/06/23 08:21:08;;;;;;;9.13;3.33;;;;;;;24.68;67.17;99903.16;4951632;28;20426;-73
2022/06/23 08:23:37;;;;;;;13.87;3.60;;;;;;;24.58;65.56;99904.13;4953191;28;20454;-72
2022/06/23 08:26:04;;;;;;;9.40;4.30;;;;;;;24.57;65.88;99908.25;4967264;28;20854;-72
2022/06/23 08:28:30;;;;;;;11.10;3.53;;;;;;;24.64;66.48;99908.16;4971993;28;20805;-72
2022/06/23 08:30:55;;;;;;;11.17;3.80;;;;;;;24.64;65.95;99911.06;4972333;28;20452;-72
2022/06/23 08:33:20;;;;;;;7.10;3.20;;;;;;;24.70;66.47;99914.28;4988169;28;20189;-73
2022/06/23 08:35:47;;;;;;;7.27;3.10;;;;;;;24.73;65.83;99908.47;4952499;28;20198;-71
2022/06/23 08:38:30;;;;;;;9.13;4.10;;;;;;;24.70;65.94;99912.25;4971892;28;20515;-72
2022/06/23 08:41:12;;;;;;;9.73;3.60;;;;;;;24.67;65.48;99904.44;4954659;28;20458;-73
2022/06/23 08:43:41;;;;;;;13.70;3.70;;;;;;;24.73;65.64;99914.25;4970249;28;20422;-72
2022/06/23 08:46:12;;;;;;;15.73;3.70;;;;;;;24.69;65.10;99904.81;4969640;28;20433;-72
2022/06/23 08:48:50;;;;;;;10.57;3.43;;;;;;;24.66;64.73;99901.97;4969525;28;20461;-72
2022/06/23 08:51:18;;;;;;;11.43;3.70;;;;;;;24.67;64.74;99895.78;4969588;28;20479;-72
2022/06/23 08:54:00;;;;;;;8.73;3.33;;;;;;;24.76;65.72;99904.72;4969715;28;20909;-73
2022/06/23 08:57:03;;;;;;;14.70;3.20;;;;;;;24.82;65.46;99902.16;4954580;28;20441;-72
2022/06/23 08:59:35;;;;;;;11.47;3.70;;;;;;;24.79;65.17;99903.84;4937127;28;20488;-73
2022/06/23 09:02:06;;;;;;;7.90;3.60;;;;;;;24.81;65.00;99897.63;4955009;28;20430;-72
2022/06/23 09:04:49;;;;;;;10.73;2.90;;;;;;;24.82;64.90;99894.31;4960766;28;20464;-73
2022/06/23 09:07:35;;;;;;;8.53;3.00;;;;;;;24.85;64.88;99889.75;4954871;28;20425;-71
2022/06/23 09:10:29;;;;;;;11.33;3.00;;;;;;;24.86;65.28;99892.22;4965879;28;21055;-72
2022/06/23 09:13:10;;;;;;;9.00;2.93;;;;;;;24.86;65.00;99886.44;4972015;28;20945;-74
2022/06/23 09:15:58;;;;;;;9.87;3.07;;;;;;;24.86;64.42;99877.78;4969157;28;20853;-71
2022/06/23 09:18:39;;;;;;;10.07;3.60;;;;;;;24.84;64.69;99883.16;4954593;28;20953;-71
2022/06/23 09:21:26;;;;;;;9.10;2.87;;;;;;;24.85;64.38;99875.31;4970680;28;20513;-72
2022/06/23 09:24:16;;;;;;;8.37;3.00;;;;;;;24.87;64.30;99870.75;4970896;28;20440;-73
2022/06/23 09:26:48;;;;;;;9.43;3.03;;;;;;;24.87;64.36;99867.84;4986520;28;20797;-71
2022/06/23 09:29:52;;;;;;;6.13;2.80;;;;;;;24.88;64.89;99860.03;4956242;28;20841;-71
2022/06/23 09:32:32;;;;;;;21.20;3.90;;;;;;;24.90;64.07;99857.50;4969583;28;20444;-70
2022/06/23 09:35:12;;;;;;;10.67;3.27;;;;;;;24.88;64.44;99854.25;4970097;28;20421;-73
2022/06/23 09:37:59;;;;;;;16.57;3.20;;;;;;;24.93;64.87;99851.66;4971773;28;20688;-72
2022/06/23 09:40:42;;;;;;;7.07;2.90;;;;;;;24.94;65.00;99853.28;4970286;28;20746;-71
2022/06/23 09:43:40;;;;;;;8.50;3.27;;;;;;;24.90;64.64;99840.16;4969405;28;20398;-72
2022/06/23 09:46:43;;;;;;;14.57;3.40;;;;;;;24.95;64.76;99849.19;4988208;28;20424;-71
2022/06/23 09:49:15;;;;;;;8.10;3.10;;;;;;;24.94;65.01;99841.75;4986924;28;20457;-73
2022/06/23 09:51:43;;;;;;;9.90;2.77;;;;;;;24.98;64.72;99842.50;4972456;28;20560;-73
2022/06/23 09:54:17;;;;;;;8.37;2.90;;;;;;;24.99;64.21;99844.13;4970815;28;20408;-71
2022/06/23 09:56:58;;;;;;;6.83;3.03;;;;;;;25.03;63.64;99844.09;4991072;28;20789;-71
2022/06/23 09:59:46;;;;;;;10.40;2.90;;;;;;;25.01;63.88;99852.38;4991249;28;20420;-72
2022/06/23 10:02:30;;;;;;;11.67;3.10;;;;;;;24.95;63.63;99846.28;4992349;28;20872;-72
2022/06/23 10:05:17;;;;;;;10.63;3.10;;;;;;;25.00;63.60;99842.91;4988644;28;20466;-72
2022/06/23 10:08:06;;;;;;;6.03;2.93;;;;;;;25.02;64.00;99846.16;4970439;28;20973;-71
2022/06/23 10:10:56;;;;;;;9.10;3.10;;;;;;;25.02;63.52;99842.44;4969235;28;21186;-71
2022/06/23 10:13:43;;;;;;;8.03;2.87;;;;;;;25.05;63.49;99842.41;4986679;28;20437;-71
2022/06/23 10:16:12;;;;;;;6.93;2.63;;;;;;;25.04;63.40;99845.75;4969130;28;20410;-73
2022/06/23 10:18:46;;;;;;;8.20;4.10;;;;;;;25.04;63.09;99837.88;4971407;28;20402;-72
2022/06/23 10:21:11;;;;;;;8.70;3.43;;;;;;;25.06;62.98;99844.03;4968918;28;20964;-73
2022/06/23 10:24:01;;;;;;;8.80;3.03;;;;;;;25.04;62.60;99840.75;4970359;28;20442;-71
2022/06/23 10:26:42;;;;;;;10.83;3.30;;;;;;;25.06;62.92;99837.44;4986779;28;20390;-73
2022/06/23 10:29:45;;;;;;;8.07;2.93;;;;;;;25.12;63.64;99835.69;4989416;28;20437;-72
2022/06/23 10:32:23;;;;;;;10.70;3.53;;;;;;;25.12;62.77;99830.75;4992821;28;20468;-71
2022/06/23 10:35:06;;;;;;;9.50;3.40;;;;;;;25.10;62.90;99820.88;4991343;28;20459;-73
2022/06/23 10:37:55;;;;;;;9.77;3.90;;;;;;;25.12;62.19;99822.06;4992233;28;20428;-73
2022/06/23 10:40:36;;;;;;;12.37;4.00;;;;;;;25.08;62.43;99823.41;4983005;28;20533;-71
2022/06/23 10:43:24;;;;;;;11.87;2.77;;;;;;;25.07;62.74;99816.78;4968406;28;20449;-71
2022/06/23 10:45:51;;;;;;;9.50;4.13;;;;;;;25.11;61.96;99811.78;4975865;28;20908;-71
2022/06/23 10:48:44;;;;;;;12.97;2.87;;;;;;;25.12;62.73;99813.41;4995268;28;20992;-71
2022/06/23 10:51:47;;;;;;;7.10;3.00;;;;;;;25.09;62.68;99808.50;4993790;28;20432;-72
2022/06/23 10:54:46;;;;;;;8.23;3.53;;;;;;;25.10;62.88;99804.38;4985072;28;20492;-73
2022/06/23 10:57:45;;;;;;;19.43;4.30;;;;;;;25.13;62.62;99797.69;4993513;28;20408;-73
2022/06/23 11:00:19;;;;;;;9.60;3.50;;;;;;;25.18;62.47;99800.09;4973556;28;20864;-73
2022/06/23 11:03:12;;;;;;;11.90;2.97;;;;;;;25.14;63.38;99793.53;4974255;28;20429;-73
2022/06/23 11:06:13;;;;;;;9.40;3.20;;;;;;;25.24;61.73;99798.31;4975973;28;21035;-71
2022/06/23 11:09:32;;;;;;;11.13;4.17;;;;;;;25.30;61.67;99784.25;4952356;28;20835;-71
2022/06/23 11:12:13;;;;;;;10.70;3.53;;;;;;;25.29;61.47;99771.84;4951931;28;20426;-72
2022/06/23 11:14:50;;;;;;;7.10;2.73;;;;;;;25.18;62.00;99764.63;4959073;28;20477;-73
2022/06/23 11:17:23;;;;;;;8.97;2.60;;;;;;;25.14;62.29;99766.75;4963015;28;20432;-72
2022/06/23 11:20:34;;;;;;;11.30;3.53;;;;;;;25.20;61.52;99762.91;4976340;28;20421;-72
2022/06/23 11:23:30;;;;;;;12.57;3.70;;;;;;;25.29;61.42;99757.41;4974547;28;20509;-72
2022/06/23 11:26:06;;;;;;;14.03;3.67;;;;;;;25.33;61.35;99761.06;4995101;28;20424;-72
2022/06/23 11:28:40;;;;;;;10.37;3.37;;;;;;;25.32;61.67;99758.59;4982728;28;21245;-72
2022/06/23 11:31:30;;;;;;;16.43;4.03;;;;;;;25.32;61.88;99750.75;4956831;28;20505;-71
2022/06/23 11:34:11;;;;;;;8.37;3.70;;;;;;;25.33;61.91;99749.50;4972638;28;20410;-71
2022/06/23 11:36:55;;;;;;;10.90;3.90;;;;;;;25.27;62.77;99748.38;4991083;28;20405;-72
2022/06/23 11:39:42;;;;;;;8.23;3.50;;;;;;;25.29;61.73;99750.81;4989357;28;20561;-71
2022/06/23 11:42:25;;;;;;;7.40;3.27;;;;;;;25.32;61.79;99747.88;4998647;28;20856;-71
2022/06/23 11:44:57;;;;;;;9.87;3.60;;;;;;;25.31;61.68;99737.56;4995605;28;20923;-72
2022/06/23 11:47:33;;;;;;;9.23;3.63;;;;;;;25.36;61.87;99742.84;5008542;28;20440;-72
2022/06/23 11:50:08;;;;;;;9.47;3.63;;;;;;;25.38;61.49;99743.19;4973897;28;21007;-72
2022/06/23 11:52:40;;;;;;;9.00;3.20;;;;;;;25.32;61.47;99747.03;4974214;28;20408;-73
2022/06/23 11:55:08;;;;;;;9.57;3.50;;;;;;;25.36;61.84;99739.94;4980664;28;20501;-73
2022/06/23 11:58:16;;;;;;;10.67;3.17;;;;;;;25.35;61.97;99735.44;4977326;28;20418;-71
2022/06/23 12:00:47;;;;;;;11.73;4.03;;;;;;;25.43;61.00;99730.34;4976344;28;20426;-71
2022/06/23 12:03:27;;;;;;;8.47;3.17;;;;;;;25.35;61.36;99717.25;4989073;28;20501;-71
2022/06/23 12:05:59;;;;;;;9.80;3.70;;;;;;;25.33;62.13;99720.59;4989607;28;20482;-71
2022/06/23 12:08:50;;;;;;;9.47;3.10;;;;;;;25.52;60.63;99714.03;4955454;28;21003;-72
2022/06/23 12:11:15;;;;;;;8.73;3.40;;;;;;;25.41;62.25;99698.97;4974523;28;20449;-72
2022/06/23 12:13:41;;;;;;;10.67;3.70;;;;;;;25.38;62.52;99705.63;4940178;28;20937;-73
2022/06/23 12:16:06;;;;;;;9.40;2.80;;;;;;;25.36;62.45;99701.53;4940990;28;20191;-71
2022/06/23 12:18:39;;;;;;;13.07;4.00;;;;;;;25.41;62.38;99703.94;4960473;28;20178;-73
2022/06/23 12:21:23;;;;;;;11.53;3.73;;;;;;;25.51;61.75;99695.06;4957779;28;20265;-71
2022/06/23 12:23:52;;;;;;;12.80;3.60;;;;;;;25.59;61.40;99681.28;4975062;28;20418;-72
2022/06/23 12:26:21;;;;;;;8.30;3.17;;;;;;;25.50;62.31;99690.53;4956748;28;20448;-71
2022/06/23 12:28:50;;;;;;;13.80;3.30;;;;;;;25.44;62.50;99695.19;4991138;28;20456;-72